Time;durP1;ratioP1;P1;durP2;ratioP2;P2;SDS_P1;SDS_P2;PMS_P1;PMS_P2;Temp;Humidity;BMP_temperature;BMP_pressure;BME280_temperature;BME280_humidity;BME280_pressure;Samples;Min_cycle;Max_cycle;Signal;HPM_P1;HPM_P2
2022/08/15 00:00:25;;;;;;;;;31.25;23.75;;;;;20.31;100.00;100259.63;6213918;22;45105;-79
2022/08/15 00:02:50;;;;;;;;;19.25;17.75;;;;;20.32;100.00;100254.06;6213153;22;45295;-79
2022/08/15 00:05:20;;;;;;;;;19.75;18.50;;;;;20.33;100.00;100261.16;6213435;22;44776;-79
2022/08/15 00:07:45;;;;;;;;;24.75;22.50;;;;;20.34;100.00;100256.59;6213818;22;44723;-79
2022/08/15 00:10:12;;;;;;;;;15.25;15.25;;;;;20.34;100.00;100252.03;6211589;22;45387;-79
2022/08/15 00:12:39;;;;;;;;;19.25;19.00;;;;;20.37;100.00;100256.25;6213001;22;45496;-79
2022/08/15 00:15:11;;;;;;;;;23.50;21.00;;;;;20.38;100.00;100250.66;6212815;22;45251;-80
2022/08/15 00:17:37;;;;;;;;;21.50;20.50;;;;;20.38;100.00;100249.81;6213544;22;44698;-79
2022/08/15 00:20:05;;;;;;;;;23.50;21.00;;;;;20.36;100.00;100254.56;6186453;22;45264;-78
2022/08/15 00:22:30;;;;;;;;;15.75;13.75;;;;;20.37;100.00;100245.44;6212172;22;45519;-79
2022/08/15 00:24:55;;;;;;;;;26.00;22.50;;;;;20.35;100.00;100244.78;6213033;22;45365;-79
2022/08/15 00:27:23;;;;;;;;;23.75;19.75;;;;;20.32;100.00;100245.97;6213553;22;45295;-79
2022/08/15 00:29:49;;;;;;;;;25.75;24.50;;;;;20.28;100.00;100244.66;6212709;22;44874;-78
2022/08/15 00:32:18;;;;;;;;;23.00;21.75;;;;;20.23;100.00;100239.78;6186166;22;45274;-79
2022/08/15 00:34:43;;;;;;;;;21.00;20.00;;;;;20.19;100.00;100240.31;6210319;22;45338;-79
2022/08/15 00:37:09;;;;;;;;;24.00;21.25;;;;;20.16;100.00;100233.44;6211976;22;44640;-78
2022/08/15 00:39:34;;;;;;;;;22.50;22.50;;;;;20.13;100.00;100235.63;6184895;22;45244;-79
2022/08/15 00:42:02;;;;;;;;;27.00;23.25;;;;;20.08;100.00;100233.47;6213190;22;45897;-78
2022/08/15 00:44:40;;;;;;;;;21.00;20.00;;;;;20.06;100.00;100235.50;6210750;22;45255;-79
2022/08/15 00:47:08;;;;;;;;;25.00;24.00;;;;;20.01;100.00;100230.63;6211692;22;45263;-79
2022/08/15 00:49:35;;;;;;;;;23.00;22.50;;;;;19.99;100.00;100238.06;6211310;22;45247;-77
2022/08/15 00:52:06;;;;;;;;;24.25;19.75;;;;;19.95;100.00;100231.34;6211769;22;45188;-79
2022/08/15 00:54:58;;;;;;;;;28.25;24.75;;;;;19.93;100.00;100235.25;6212132;22;44714;-78
2022/08/15 00:57:35;;;;;;;;;21.00;19.75;;;;;19.90;100.00;100232.88;6184383;22;45481;-79
2022/08/15 01:00:06;;;;;;;;;23.75;21.50;;;;;19.88;100.00;100235.75;6212681;22;45165;-79
2022/08/15 01:02:34;;;;;;;;;26.00;23.75;;;;;19.86;100.00;100227.00;6212701;22;44991;-79
2022/08/15 01:05:02;;;;;;;;;28.75;22.50;;;;;19.84;100.00;100229.03;6183790;22;45469;-77
2022/08/15 01:07:28;;;;;;;;;28.50;25.25;;;;;19.81;100.00;100242.84;6212083;22;45167;-78
2022/08/15 01:09:53;;;;;;;;;23.00;21.00;;;;;19.77;100.00;100231.59;6212015;22;44757;-78
2022/08/15 01:12:24;;;;;;;;;23.75;23.50;;;;;19.75;100.00;100230.91;6211898;22;45532;-79
2022/08/15 01:14:53;;;;;;;;;27.00;24.50;;;;;19.72;100.00;100231.25;6211328;22;45198;-78
2022/08/15 01:17:19;;;;;;;;;28.50;23.25;;;;;19.71;100.00;100231.44;6212456;22;44658;-77
2022/08/15 01:20:21;;;;;;;;;28.00;25.50;;;;;19.66;100.00;100231.97;6184088;22;44764;-78
2022/08/15 01:23:06;;;;;;;;;28.00;26.25;;;;;19.64;100.00;100236.69;6179625;22;45365;-78
2022/08/15 01:25:39;;;;;;;;;31.50;23.00;;;;;19.63;100.00;100235.03;6212161;22;44687;-78
2022/08/15 01:28:17;;;;;;;;;29.50;26.50;;;;;19.61;100.00;100236.19;6211852;22;45355;-78
2022/08/15 01:30:49;;;;;;;;;24.75;24.75;;;;;19.59;100.00;100236.34;6211894;22;44812;-78
2022/08/15 01:33:15;;;;;;;;;28.25;27.00;;;;;19.57;100.00;100235.66;6211612;22;44965;-78
2022/08/15 01:35:42;;;;;;;;;34.00;30.00;;;;;19.54;100.00;100237.88;6211782;22;44814;-78
2022/08/15 01:38:26;;;;;;;;;34.25;30.00;;;;;19.52;100.00;100241.56;6212762;22;45246;-78
2022/08/15 01:40:58;;;;;;;;;29.75;28.00;;;;;19.48;100.00;100242.91;6211335;22;44782;-79
2022/08/15 01:43:28;;;;;;;;;31.50;24.75;;;;;19.43;100.00;100239.91;6211039;22;45446;-79
2022/08/15 01:45:59;;;;;;;;;32.75;28.25;;;;;19.42;100.00;100235.53;6211379;22;45244;-79
2022/08/15 01:48:33;;;;;;;;;31.25;28.75;;;;;19.42;100.00;100240.09;6210082;22;44841;-79
2022/08/15 01:51:03;;;;;;;;;29.25;28.50;;;;;19.40;100.00;100236.75;6212572;22;45080;-78
2022/08/15 01:53:40;;;;;;;;;27.00;24.00;;;;;19.38;100.00;100236.06;6210954;22;45359;-78
2022/08/15 01:56:22;;;;;;;;;32.00;26.25;;;;;19.35;100.00;100234.56;6212036;22;45168;-78
2022/08/15 01:58:48;;;;;;;;;30.00;28.67;;;;;19.34;100.00;100229.31;6184883;22;45288;-78
2022/08/15 02:01:19;;;;;;;;;33.25;26.25;;;;;19.31;100.00;100225.13;6212215;22;45244;-78
2022/08/15 02:03:47;;;;;;;;;27.00;21.75;;;;;19.30;100.00;100228.00;6210458;22;46298;-78
2022/08/15 02:06:17;;;;;;;;;29.75;25.25;;;;;19.26;100.00;100224.81;6211987;22;45165;-78
2022/08/15 02:08:44;;;;;;;;;36.50;26.25;;;;;19.24;100.00;100226.81;6212262;22;44794;-78
2022/08/15 02:11:13;;;;;;;;;27.25;25.50;;;;;19.22;100.00;100224.31;6212771;22;45447;-79
2022/08/15 02:13:40;;;;;;;;;30.25;25.75;;;;;19.19;100.00;100227.34;6186093;22;45400;-78
2022/08/15 02:16:05;;;;;;;;;30.25;25.25;;;;;19.17;100.00;100218.59;6211146;22;45195;-78
2022/08/15 02:18:31;;;;;;;;;30.50;24.25;;;;;19.16;100.00;100222.31;6212377;22;45539;-77
2022/08/15 02:20:57;;;;;;;;;29.50;26.00;;;;;19.14;100.00;100216.22;6212690;22;45263;-78
2022/08/15 02:23:23;;;;;;;;;29.25;24.50;;;;;19.12;100.00;100222.81;6212749;22;45196;-78
2022/08/15 02:25:52;;;;;;;;;32.50;27.50;;;;;19.10;100.00;100219.44;6213131;22;45151;-78
2022/08/15 02:28:18;;;;;;;;;29.00;25.25;;;;;19.07;100.00;100222.50;6211797;22;44619;-78
2022/08/15 02:30:44;;;;;;;;;27.75;27.75;;;;;19.06;100.00;100220.81;6213066;22;45179;-78
2022/08/15 02:33:10;;;;;;;;;28.00;24.50;;;;;19.03;100.00;100211.22;6213043;22;45267;-78
2022/08/15 02:35:36;;;;;;;;;37.25;30.00;;;;;19.02;100.00;100211.38;6212981;22;44693;-79
2022/08/15 02:38:05;;;;;;;;;29.00;26.00;;;;;19.00;100.00;100208.84;6185602;22;45296;-79
2022/08/15 02:40:33;;;;;;;;;32.00;29.75;;;;;18.97;100.00;100204.66;6212535;22;44850;-78
2022/08/15 02:43:07;;;;;;;;;29.50;23.50;;;;;18.96;100.00;100205.69;6210842;22;45632;-79
2022/08/15 02:45:37;;;;;;;;;29.50;26.75;;;;;18.93;100.00;100200.63;6212709;22;45205;-78
2022/08/15 02:48:08;;;;;;;;;30.00;29.25;;;;;18.93;100.00;100200.63;6186265;22;44779;-78
2022/08/15 02:50:35;;;;;;;;;30.00;28.75;;;;;18.92;100.00;100206.19;6212519;22;44749;-79
2022/08/15 02:53:12;;;;;;;;;28.00;28.00;;;;;18.89;100.00;100204.66;6211223;22;45186;-80
2022/08/15 02:55:39;;;;;;;;;28.75;25.75;;;;;18.91;100.00;100204.50;6212251;22;45283;-78
2022/08/15 02:58:05;;;;;;;;;29.50;27.75;;;;;18.88;100.00;100202.97;6213258;22;45227;-79
2022/08/15 03:00:31;;;;;;;;;31.75;29.00;;;;;18.86;100.00;100199.63;6211084;22;45430;-78
2022/08/15 03:03:02;;;;;;;;;30.75;28.25;;;;;18.85;100.00;100194.41;6211852;22;45325;-77
2022/08/15 03:05:30;;;;;;;;;28.50;26.50;;;;;18.82;100.00;100197.44;6212449;22;44694;-78
2022/08/15 03:07:56;;;;;;;;;27.75;27.25;;;;;18.83;100.00;100199.97;6186855;22;45233;-78
2022/08/15 03:10:22;;;;;;;;;33.75;29.50;;;;;18.83;100.00;100193.75;6212750;22;45344;-78
2022/08/15 03:12:48;;;;;;;;;35.75;30.75;;;;;18.82;100.00;100200.97;6211912;22;45259;-79
2022/08/15 03:15:13;;;;;;;;;35.75;31.50;;;;;18.82;100.00;100198.28;6212148;22;44649;-77
2022/08/15 03:17:39;;;;;;;;;32.25;28.00;;;;;18.83;100.00;100201.81;6212616;22;45218;-79
2022/08/15 03:20:05;;;;;;;;;32.00;29.75;;;;;18.81;100.00;100199.31;6212230;22;45093;-77
2022/08/15 03:22:52;;;;;;;;;33.33;32.67;;;;;18.80;100.00;100196.75;6211139;22;45185;-78
2022/08/15 03:25:20;;;;;;;;;31.50;27.00;;;;;18.77;100.00;100197.97;6212428;22;44854;-78
2022/08/15 03:27:46;;;;;;;;;36.33;32.67;;;;;18.76;100.00;100188.22;6210508;22;44732;-78
2022/08/15 03:30:14;;;;;;;;;32.67;29.67;;;;;18.76;100.00;100188.22;6211761;22;45251;-79
2022/08/15 03:32:53;;;;;;;;;35.00;30.67;;;;;18.74;100.00;100193.72;6211719;22;45113;-78
2022/08/15 03:35:21;;;;;;;;;30.67;28.67;;;;;18.72;100.00;100186.84;6212416;22;45237;-78
2022/08/15 03:37:47;;;;;;;;;32.67;30.33;;;;;18.72;100.00;100187.69;6212568;22;44809;-79
2022/08/15 03:40:13;;;;;;;;;35.75;30.00;;;;;18.72;100.00;100189.56;6212717;22;45253;-78
2022/08/15 03:42:38;;;;;;;;;30.00;30.00;;;;;18.70;100.00;100187.00;6211362;22;45261;-78
2022/08/15 03:45:11;;;;;;;;;31.00;26.75;;;;;18.71;100.00;100191.41;6211897;22;44801;-78
2022/08/15 03:47:36;;;;;;;;;33.75;28.25;;;;;18.67;100.00;100179.25;6210820;22;45279;-78
2022/08/15 03:50:04;;;;;;;;;33.00;28.25;;;;;18.70;100.00;100180.78;6212900;22;44666;-78
2022/08/15 03:52:29;;;;;;;;;29.00;25.25;;;;;18.67;100.00;100190.03;6212176;22;45085;-78
2022/08/15 03:54:58;;;;;;;;;30.67;28.00;;;;;18.66;100.00;100180.28;6211987;22;45291;-78
2022/08/15 03:57:24;;;;;;;;;33.50;28.00;;;;;18.63;100.00;100177.91;6212588;22;44786;-78
2022/08/15 03:59:51;;;;;;;;;29.00;26.25;;;;;18.62;100.00;100178.91;6212170;22;45232;-78
2022/08/15 04:02:16;;;;;;;;;34.67;27.00;;;;;18.61;100.00;100176.38;6212252;22;45143;-77
2022/08/15 04:04:41;;;;;;;;;26.50;26.50;;;;;18.59;100.00;100173.88;6210594;22;45392;-78
2022/08/15 04:07:07;;;;;;;;;30.75;28.25;;;;;18.58;100.00;100166.81;6212418;22;44750;-78
2022/08/15 04:09:33;;;;;;;;;29.50;28.00;;;;;18.56;100.00;100167.97;6212585;22;45373;-78
2022/08/15 04:11:58;;;;;;;;;31.00;27.00;;;;;18.54;100.00;100164.63;6212964;22;45457;-78
2022/08/15 04:14:24;;;;;;;;;31.00;29.00;;;;;18.53;100.00;100161.09;6212165;22;45270;-78
2022/08/15 04:16:50;;;;;;;;;38.00;31.25;;;;;18.52;100.00;100161.25;6212636;22;45283;-78
2022/08/15 04:19:15;;;;;;;;;33.00;28.00;;;;;18.49;100.00;100170.50;6212994;22;44762;-78
2022/08/15 04:21:42;;;;;;;;;33.33;27.00;;;;;18.44;100.00;100171.00;6212340;22;44969;-77
2022/08/15 04:24:07;;;;;;;;;28.00;28.00;;;;;18.42;100.00;100170.34;6211735;22;44774;-78
2022/08/15 04:26:34;;;;;;;;;29.00;25.25;;;;;18.41;100.00;100171.34;6185119;22;44886;-78
2022/08/15 04:29:00;;;;;;;;;31.00;27.00;;;;;18.42;100.00;100170.34;6212353;22;45317;-78
2022/08/15 04:31:25;;;;;;;;;33.75;31.50;;;;;18.39;100.00;100169.84;6211200;22;45586;-78
2022/08/15 04:33:52;;;;;;;;;36.00;29.50;;;;;18.39;100.00;100177.91;6211741;22;44734;-77
2022/08/15 04:36:19;;;;;;;;;27.75;26.50;;;;;18.38;100.00;100166.31;6212752;22;45161;-79
2022/08/15 04:38:47;;;;;;;;;28.25;27.50;;;;;18.37;100.00;100167.31;6212554;22;44902;-78
2022/08/15 04:41:13;;;;;;;;;26.75;25.25;;;;;18.38;100.00;100169.00;6211464;22;45224;-78
2022/08/15 04:43:42;;;;;;;;;32.25;28.50;;;;;18.39;100.00;100176.06;6209917;22;45361;-78
2022/08/15 04:46:09;;;;;;;;;30.50;25.50;;;;;18.39;100.00;100161.75;6212569;22;44716;-78
2022/08/15 04:48:34;;;;;;;;;32.75;29.50;;;;;18.40;100.00;100166.13;6212549;22;44792;-78
2022/08/15 04:51:02;;;;;;;;;30.25;27.50;;;;;18.42;100.00;100164.97;6212746;22;45400;-78
2022/08/15 04:53:33;;;;;;;;;29.75;26.25;;;;;18.44;100.00;100162.94;6211920;22;44769;-77
2022/08/15 04:56:00;;;;;;;;;24.75;24.00;;;;;18.45;100.00;100156.53;6212120;22;45251;-77
2022/08/15 04:58:27;;;;;;;;;29.75;26.00;;;;;18.46;100.00;100158.22;6211900;22;45263;-78
2022/08/15 05:01:05;;;;;;;;;27.50;26.50;;;;;18.49;100.00;100149.81;6211359;22;45429;-79
2022/08/15 05:03:31;;;;;;;;;25.75;22.00;;;;;18.52;100.00;100156.72;6212246;22;44745;-79
2022/08/15 05:06:01;;;;;;;;;24.75;23.75;;;;;18.52;100.00;100145.97;6212307;22;45197;-78
2022/08/15 05:08:30;;;;;;;;;26.75;24.50;;;;;18.55;100.00;100147.47;6185764;22;45295;-78
2022/08/15 05:11:03;;;;;;;;;23.25;22.00;;;;;18.57;100.00;100140.94;6211614;22;45425;-78
2022/08/15 05:13:32;;;;;;;;;30.25;27.25;;;;;18.58;100.00;100131.00;6210811;22;45370;-79
2022/08/15 05:16:00;;;;;;;;;27.00;21.25;;;;;18.57;100.00;100130.16;6211633;22;45165;-78
2022/08/15 05:18:27;;;;;;;;;26.00;23.25;;;;;18.60;100.00;100129.81;6212371;22;44694;-78
2022/08/15 05:20:54;;;;;;;;;28.50;25.25;;;;;18.64;100.00;100143.78;6211811;22;45349;-77
2022/08/15 05:23:22;;;;;;;;;26.75;26.75;;;;;18.65;100.00;100148.13;6211540;22;45254;-77
2022/08/15 05:25:52;;;;;;;;;26.50;25.75;;;;;18.70;100.00;100135.03;6211824;22;45170;-79
2022/08/15 05:28:17;;;;;;;;;28.00;26.50;;;;;18.77;100.00;100141.44;6184837;22;45386;-78
2022/08/15 05:30:45;;;;;;;;;31.50;24.50;;;;;18.85;100.00;100141.41;6211959;22;45487;-78
2022/08/15 05:33:15;;;;;;;;;26.25;25.00;;;;;18.97;100.00;100136.53;6211840;22;44780;-78
2022/08/15 05:35:43;;;;;;;;;29.00;25.50;;;;;19.12;100.00;100132.09;6212539;22;45330;-77
2022/08/15 05:38:15;;;;;;;;;24.50;22.25;;;;;19.27;100.00;100126.84;6213591;22;45290;-79
2022/08/15 05:41:14;;;;;;;;;19.50;19.25;;;;;19.44;100.00;100131.16;6188600;22;45108;-78
2022/08/15 05:43:48;;;;;;;;;24.75;23.00;;;;;19.63;100.00;100137.13;6213071;22;44828;-78
2022/08/15 05:46:44;;;;;;;;;23.25;22.00;;;;;19.77;100.00;100131.88;6213899;22;45256;-79
2022/08/15 05:49:22;;;;;;;;;26.00;22.25;;;;;19.91;100.00;100132.94;6186838;22;45459;-79
2022/08/15 05:52:17;;;;;;;;;26.00;23.50;;;;;19.99;100.00;100123.97;6213826;22;45056;-79
2022/08/15 05:55:16;;;;;;;;;23.50;22.25;;;;;20.02;100.00;100118.25;6211443;22;45212;-78
2022/08/15 05:57:56;;;;;;;;;23.00;21.50;;;;;20.00;100.00;100120.25;6213446;22;45257;-79
2022/08/15 06:00:24;;;;;;;;;26.50;23.75;;;;;19.97;100.00;100129.56;6213058;22;45324;-79
2022/08/15 06:03:08;;;;;;;;;22.75;21.75;;;;;19.96;100.00;100130.56;6212625;22;45323;-77
2022/08/15 06:05:48;;;;;;;;;24.25;22.25;;;;;19.97;100.00;100124.16;6213232;22;45175;-78
2022/08/15 06:08:20;;;;;;;;;22.75;21.25;;;;;20.03;100.00;100134.22;6213892;22;45367;-78
2022/08/15 06:10:53;;;;;;;;;24.50;21.00;;;;;20.12;100.00;100129.63;6212402;22;45450;-79
2022/08/15 06:13:32;;;;;;;;;23.50;22.00;;;;;20.22;100.00;100129.38;6213921;22;45185;-78
2022/08/15 06:16:39;;;;;;;;;18.25;18.25;;;;;20.32;100.00;100127.28;6214272;22;44715;-78
2022/08/15 06:19:15;;;;;;;;;28.00;23.25;;;;;20.44;100.00;100124.97;6120989;23;45401;-79
2022/08/15 06:22:20;;;;;;;;;25.25;21.75;;;;;20.47;100.00;100121.97;6120494;23;45448;-79
2022/08/15 06:25:29;;;;;;;;;26.75;22.50;;;;;20.52;100.00;100116.84;6101752;23;45685;-78
2022/08/15 06:28:17;;;;;;;;;23.60;21.40;;;;;20.60;100.00;100102.44;6121246;23;45277;-78
2022/08/15 06:31:35;;;;;;;;;19.50;19.50;;;;;20.66;100.00;100110.66;6120986;23;44719;-78
2022/08/15 06:34:30;;;;;;;;;20.50;19.00;;;;;20.73;100.00;100108.88;6061281;23;45389;-78
2022/08/15 06:37:07;;;;;;;;;19.00;17.75;;;;;20.78;100.00;100105.63;6062016;23;45860;-78
2022/08/15 06:39:46;;;;;;;;;22.25;19.50;;;;;20.86;100.00;100105.56;6061858;23;44752;-78
2022/08/15 06:42:17;;;;;;;;;20.60;17.60;;;;;20.94;100.00;100108.16;6038172;23;44659;-79
2022/08/15 06:44:42;;;;;;;;;25.25;21.50;;;;;21.03;100.00;100120.56;6061218;23;44782;-78
2022/08/15 06:47:09;;;;;;;;;16.75;16.50;;;;;21.10;100.00;100114.41;6061390;23;45296;-77
2022/08/15 06:49:38;;;;;;;;;19.20;18.80;;;;;21.16;100.00;100119.91;6062446;23;44721;-79
2022/08/15 06:52:05;;;;;;;;;20.00;19.00;;;;;21.23;100.00;100117.31;6062597;23;45318;-81
2022/08/15 06:54:32;;;;;;;;;20.50;20.50;;;;;21.33;100.00;100103.53;6061757;23;44934;-81
2022/08/15 06:57:18;;;;;;;;;19.25;17.50;;;;;21.44;100.00;100105.75;6089192;23;45341;-81
2022/08/15 06:59:53;;;;;;;;;17.20;16.20;;;;;21.61;100.00;100104.50;6092220;23;44766;-79
2022/08/15 07:02:21;;;;;;;;;20.40;17.60;;;;;21.73;100.00;100097.56;6092159;23;44807;-79
2022/08/15 07:05:17;;;;;;;;;17.00;17.00;;;;;21.86;100.00;100104.16;6092190;23;44860;-82
2022/08/15 07:08:01;;;;;;;;;21.50;16.00;;;;;22.01;100.00;100096.84;6093212;23;45230;-80
2022/08/15 07:10:29;;;;;;;;;18.80;16.60;;;;;22.04;100.00;100099.13;6154369;22;45153;-81
2022/08/15 07:13:12;;;;;;;;;19.40;18.60;;;;;22.09;100.00;100102.09;6214702;22;45429;-79
2022/08/15 07:15:58;;;;;;;;;16.75;16.75;;;;;22.23;100.00;100103.09;6212311;22;44855;-78
2022/08/15 07:18:42;;;;;;;;;21.25;18.50;;;;;22.36;100.00;100091.56;6214906;22;45313;-79
2022/08/15 07:21:17;;;;;;;;;16.80;15.80;;;;;22.46;100.00;100089.34;6213811;22;44763;-79
2022/08/15 07:23:58;;;;;;;;;18.40;16.80;;;;;22.60;100.00;100091.13;6213088;22;45292;-78
2022/08/15 07:26:27;;;;;;;;;20.75;18.25;;;;;22.69;100.00;100098.09;6215793;22;45608;-78
2022/08/15 07:28:57;;;;;;;;;21.00;18.50;;;;;22.77;100.00;100099.78;6218722;22;45031;-78
2022/08/15 07:31:31;;;;;;;;;18.40;14.80;;;;;22.85;100.00;100091.50;6216584;22;44607;-77
2022/08/15 07:34:06;;;;;;;;;19.80;17.40;;;;;22.94;100.00;100095.78;6218662;22;44774;-78
2022/08/15 07:36:34;;;;;;;;;17.75;16.25;;;;;23.02;100.00;100102.94;6218712;22;45262;-79
2022/08/15 07:39:19;;;;;;;;;16.20;14.60;;;;;23.06;100.00;100096.03;6217929;22;45338;-78
2022/08/15 07:41:44;;;;;;;;;17.20;16.80;;;;;23.19;100.00;100096.13;6218496;22;44579;-78
2022/08/15 07:44:32;;;;;;;;;19.50;16.00;;;;;23.31;100.00;100093.69;6220662;22;45140;-79
2022/08/15 07:47:01;;;;;;;;;17.25;17.25;;;;;23.44;100.00;100096.44;6220400;22;44767;-80
2022/08/15 07:49:32;;;;;;;;;17.00;15.60;;;;;23.57;100.00;100096.50;6215773;22;45313;-79
2022/08/15 07:52:20;;;;;;;;;16.60;14.40;;;;;23.64;100.00;100090.28;6213574;22;45375;-79
2022/08/15 07:54:49;;;;;;;;;17.00;14.80;;;;;23.79;100.00;100094.53;6214395;22;45263;-80
2022/08/15 07:57:36;;;;;;;;;17.50;16.25;;;;;23.93;100.00;100091.84;6214391;22;45157;-79
2022/08/15 08:00:34;;;;;;;;;15.20;15.20;;;;;24.24;100.00;100083.13;6213960;22;45263;-80
2022/08/15 08:03:15;;;;;;;;;16.00;14.60;;;;;24.50;100.00;100083.13;6196284;22;44772;-80
2022/08/15 08:06:27;;;;;;;;;15.00;13.80;;;;;24.58;100.00;100082.94;6215665;22;44768;-78
2022/08/15 08:09:16;;;;;;;;;14.60;13.60;;;;;24.64;100.00;100089.41;6215393;22;44812;-80
2022/08/15 08:11:54;;;;;;;;;12.60;10.80;;;;;24.69;100.00;100086.06;6212853;22;45275;-79
2022/08/15 08:14:25;;;;;;;;;12.80;12.20;;;;;24.77;100.00;100091.28;6212527;22;44663;-79
2022/08/15 08:17:18;;;;;;;;;14.80;13.40;;;;;24.72;100.00;100085.66;6186374;22;44653;-79
2022/08/15 08:20:16;;;;;;;;;13.80;13.80;;;;;24.70;100.00;100079.56;6202221;22;44886;-79
2022/08/15 08:23:01;;;;;;;;;11.40;11.40;;;;;24.52;100.00;100083.78;6186513;22;47195;-79
2022/08/15 08:25:35;;;;;;;;;11.00;9.60;;;;;24.48;100.00;100084.41;6212903;22;44676;-79
2022/08/15 08:28:28;;;;;;;;;12.80;11.60;;;;;24.47;100.00;100085.47;6213909;22;44777;-79
2022/08/15 08:31:16;;;;;;;;;12.60;12.60;;;;;24.46;100.00;100086.47;6214772;22;44658;-79
2022/08/15 08:34:23;;;;;;;;;14.00;10.80;;;;;24.55;100.00;100082.50;6185806;22;45314;-79
2022/08/15 08:37:07;;;;;;;;;8.60;7.20;;;;;24.57;100.00;100084.00;6121485;23;44719;-79
2022/08/15 08:39:55;;;;;;;;;10.40;9.00;;;;;24.63;100.00;100079.59;6121168;23;44774;-79
2022/08/15 08:42:21;;;;;;;;;13.20;10.20;;;;;24.79;100.00;100084.56;6096764;23;44767;-79
2022/08/15 08:45:30;;;;;;;;;9.25;9.25;;;;;24.86;100.00;100079.97;6120797;23;45139;-78
2022/08/15 08:48:31;;;;;;;;;10.60;9.20;;;;;24.93;100.00;100082.66;6058634;23;45459;-78
2022/08/15 08:50:59;;;;;;;;;11.00;8.80;;;;;24.88;100.00;100083.31;6061907;23;45403;-81
2022/08/15 08:53:48;;;;;;;;;10.40;9.80;;;;;24.76;100.00;100085.00;6064160;23;45421;-81
2022/08/15 08:56:30;;;;;;;;;12.60;9.80;;;;;24.61;100.00;100084.38;6065431;23;45365;-80
2022/08/15 08:59:23;;;;;;;;;7.40;7.40;;;;;24.51;100.00;100090.25;6064078;23;45498;-81
2022/08/15 09:01:58;;;;;;;;;9.00;8.20;;;;;24.43;100.00;100086.91;6034080;23;45168;-81
2022/08/15 09:04:39;;;;;;;;;6.40;6.20;;;;;24.38;100.00;100089.44;6034355;23;44871;-81
2022/08/15 09:07:07;;;;;;;;;8.60;6.20;;;;;24.35;100.00;100082.50;6035428;23;45242;-80
2022/08/15 09:09:39;;;;;;;;;8.20;7.80;;;;;24.40;100.00;100090.88;6033812;23;45238;-81
2022/08/15 09:15:03;;;;;;;;;5.60;5.60;;;;;24.68;100.00;100085.22;6064566;23;44790;-81
2022/08/15 09:17:33;;;;;;;;;4.80;4.80;;;;;24.86;100.00;100090.84;6062897;23;45217;-81
2022/08/15 09:20:10;;;;;;;;;4.20;4.20;;;;;25.09;100.00;100090.41;6063582;23;45377;-82
2022/08/15 09:22:36;;;;;;;;;3.60;3.60;;;;;25.25;100.00;100086.38;6062620;23;44809;-82
2022/08/15 09:25:01;;;;;;;;;4.75;4.75;;;;;25.33;100.00;100083.41;6102008;23;44786;-81
2022/08/15 09:27:38;;;;;;;;;5.50;5.00;;;;;25.36;100.00;100093.03;6121467;23;45388;-82
2022/08/15 09:30:10;;;;;;;;;4.00;4.00;;;;;25.28;100.00;100093.25;6121503;23;44741;-81
2022/08/15 09:33:07;;;;;;;;;3.00;3.00;;;;;25.16;100.00;100095.00;6121509;23;45307;-80
2022/08/15 09:35:38;;;;;;;;;4.20;4.20;;;;;25.20;100.00;100094.34;6122076;23;44734;-81
2022/08/15 09:38:12;;;;;;;;;1.80;1.80;;;;;25.27;100.00;100091.59;6134919;22;45336;-80
2022/08/15 09:41:00;;;;;;;;;4.20;4.20;;;;;25.34;100.00;100093.25;6186810;22;44826;-80
2022/08/15 09:43:47;;;;;;;;;4.40;4.40;;;;;25.31;100.00;100090.97;6214235;22;44737;-81
2022/08/15 09:46:27;;;;;;;;;4.00;4.00;;;;;25.26;100.00;100096.22;6218538;22;44766;-81
2022/08/15 09:48:56;;;;;;;;;4.60;4.60;;;;;25.16;100.00;100101.25;6219311;22;45475;-82
2022/08/15 09:51:57;;;;;;;;;4.40;4.00;;;;;25.06;100.00;100103.56;6219042;22;44686;-81
2022/08/15 09:54:25;;;;;;;;;4.40;4.40;;;;;25.00;100.00;100109.84;6215589;22;44679;-81
2022/08/15 09:57:17;;;;;;;;;5.00;5.00;;;;;24.91;100.00;100103.81;6214476;22;44858;-83
2022/08/15 09:59:43;;;;;;;;;4.00;4.00;;;;;24.77;100.00;100099.44;6213892;22;45354;-81
2022/08/15 10:02:20;;;;;;;;;4.50;4.50;;;;;24.62;100.00;100107.81;6213488;22;45100;-82
2022/08/15 10:04:55;;;;;;;;;3.80;3.80;;;;;24.53;100.00;100109.91;6213399;22;44790;-81
2022/08/15 10:07:58;;;;;;;;;7.00;7.00;;;;;24.44;100.00;100113.84;6187378;22;45240;-82
2022/08/15 10:10:32;;;;;;;;;5.60;5.60;;;;;24.36;100.00;100114.88;6214399;22;44935;-82
2022/08/15 10:13:06;;;;;;;;;6.20;6.20;;;;;24.33;100.00;100109.03;6214298;22;45334;-81
2022/08/15 10:15:45;;;;;;;;;6.80;5.40;;;;;24.33;100.00;100111.75;6213429;22;44757;-80
2022/08/15 10:18:22;;;;;;;;;6.80;6.80;;;;;24.29;100.00;100107.75;6213255;22;44774;-82
2022/08/15 10:21:17;;;;;;;;;6.00;6.00;;;;;24.36;100.00;100108.63;6187076;22;45322;-81
2022/08/15 10:23:46;;;;;;;;;6.60;6.60;;;;;24.51;100.00;100105.69;6213369;22;44777;-82
2022/08/15 10:26:31;;;;;;;;;7.80;6.80;;;;;24.70;100.00;100104.03;6187814;22;45201;-82
2022/08/15 10:29:04;;;;;;;;;8.00;6.80;;;;;24.87;100.00;100095.22;6214797;22;44714;-81
2022/08/15 10:31:56;;;;;;;;;13.40;13.40;;;;;25.01;100.00;100096.03;6215336;22;45757;-81
2022/08/15 10:34:47;;;;;;;;;14.00;13.20;;;;;25.12;100.00;100095.41;6213957;22;45188;-82
2022/08/15 10:37:22;;;;;;;;;7.00;7.00;;;;;25.07;100.00;100097.09;6203565;22;45316;-81
2022/08/15 10:39:59;;;;;;;;;8.60;6.80;;;;;25.05;100.00;100104.63;6215121;22;45314;-80
2022/08/15 10:42:41;;;;;;;;;7.00;7.00;;;;;25.05;100.00;100099.19;6216229;22;45321;-82
2022/08/15 10:45:21;;;;;;;;;7.40;7.40;;;;;24.90;100.00;100101.28;6214871;22;44551;-82
2022/08/15 10:48:01;;;;;;;;;8.20;6.20;;;;;24.86;100.00;100101.72;6215048;22;45378;-82
2022/08/15 10:50:45;;;;;;;;;7.20;6.20;;;;;24.88;100.00;100099.59;6187618;22;45245;-80
2022/08/15 10:53:39;;;;;;;;;6.60;5.60;;;;;24.76;100.00;100092.34;6215415;22;45314;-82
2022/08/15 10:56:14;;;;;;;;;7.40;7.40;;;;;24.69;100.00;100103.19;6214675;22;44749;-79
2022/08/15 10:58:39;;;;;;;;;7.20;7.20;;;;;24.68;100.00;100098.81;6215026;22;45168;-82
2022/08/15 11:01:06;;;;;;;;;9.75;7.75;;;;;24.66;100.00;100098.19;6214489;22;44870;-82
2022/08/15 11:03:43;;;;;;;;;7.00;7.00;;;;;24.66;100.00;100103.63;6187796;22;45251;-82
2022/08/15 11:06:15;;;;;;;;;8.60;6.80;;;;;24.66;100.00;100098.19;6207569;22;44773;-81
2022/08/15 11:08:47;;;;;;;;;12.80;8.20;;;;;24.63;100.00;100095.06;6187550;22;44691;-82
2022/08/15 11:11:15;;;;;;;;;8.00;7.00;;;;;24.52;100.00;100093.81;6214344;22;44790;-82
2022/08/15 11:13:43;;;;;;;;;10.20;8.60;;;;;24.43;100.00;100092.34;6213895;22;45420;-81
2022/08/15 11:16:16;;;;;;;;;6.40;6.40;;;;;24.33;100.00;100093.56;6214808;22;44805;-82
2022/08/15 11:18:50;;;;;;;;;9.20;9.20;;;;;24.24;100.00;100092.09;6218756;22;44674;-83
2022/08/15 11:21:39;;;;;;;;;7.00;7.00;;;;;24.25;100.00;100104.63;6214342;22;45458;-83
2022/08/15 11:24:06;;;;;;;;;11.60;9.80;;;;;24.28;100.00;100103.38;6215422;22;45201;-83
2022/08/15 11:26:38;;;;;;;;;8.40;8.40;;;;;24.24;100.00;100102.97;6214568;22;44775;-80
2022/08/15 11:29:19;;;;;;;;;8.60;8.20;;;;;24.12;100.00;100110.03;6217250;22;45341;-83
2022/08/15 11:31:54;;;;;;;;;7.80;7.60;;;;;24.10;100.00;100109.41;6216628;22;44753;-82
2022/08/15 11:34:38;;;;;;;;;8.80;7.00;;;;;24.08;100.00;100108.78;6216018;22;45287;-82
2022/08/15 11:37:25;;;;;;;;;10.80;10.80;;;;;24.01;100.00;100108.75;6215072;22;44834;-82
2022/08/15 11:39:53;;;;;;;;;10.00;8.00;;;;;23.68;100.00;100110.53;6188461;22;44709;-82